Time;durP1;ratioP1;P1;durP2;ratioP2;P2;SDS_P1;SDS_P2;PMS_P1;PMS_P2;Temp;Humidity;BMP_temperature;BMP_pressure;BME280_temperature;BME280_humidity;BME280_pressure;Samples;Min_cycle;Max_cycle;Signal;HPM_P1;HPM_P2
2024/02/03 00:02:11;;;;;;;;;;;;;;;7.76;100.00;102642.81;5095328;28;20306;-72
2024/02/03 00:04:36;;;;;;;;;;;;;;;7.78;100.00;102645.41;5094000;28;20561;-72
2024/02/03 00:07:02;;;;;;;;;;;;;;;7.80;100.00;102636.72;5094981;28;19924;-72
2024/02/03 00:09:27;;;;;;;;;;;;;;;7.82;100.00;102641.94;5094989;28;19927;-72
2024/02/03 00:11:52;;;;;;;;;;;;;;;7.84;100.00;102645.41;5096498;28;20237;-72
2024/02/03 00:14:17;;;;;;;;;;;;;;;7.84;100.00;102638.47;5098204;28;19919;-72
2024/02/03 00:16:43;;;;;;;;;;;;;;;7.85;100.00;102642.81;5094025;28;19919;-72
2024/02/03 00:19:08;;;;;;;;;;;;;;;7.86;100.00;102641.94;5098793;28;20219;-72
2024/02/03 00:21:33;;;;;;;;;;;;;;;7.89;100.00;102635.84;5095906;28;20182;-72
2024/02/03 00:23:58;;;;;;;;;;;;;;;7.92;100.00;102635.00;5091835;28;19944;-72
2024/02/03 00:26:23;;;;;;;;;;;;;;;7.95;100.00;102640.19;5094283;28;19920;-72
2024/02/03 00:28:49;;;;;;;;;;;;;;;7.97;100.00;102636.72;5096289;28;19920;-72
2024/02/03 00:31:15;;;;;;;;;;;;;;;8.01;100.00;102637.59;5094883;28;20331;-72
2024/02/03 00:33:40;;;;;;;;;;;;;;;8.03;100.00;102641.06;5072948;28;20448;-72
2024/02/03 00:36:06;;;;;;;;;;;;;;;8.04;100.00;102634.94;5077426;28;19927;-72
2024/02/03 00:38:31;;;;;;;;;;;;;;;8.04;100.00;102634.94;5099540;28;19961;-72
2024/02/03 00:40:56;;;;;;;;;;;;;;;8.07;100.00;102640.19;5091971;28;19974;-72
2024/02/03 00:43:21;;;;;;;;;;;;;;;8.07;100.00;102641.03;5097962;28;20159;-72
2024/02/03 00:45:47;;;;;;;;;;;;;;;8.07;100.00;102643.66;5100468;28;19978;-72
2024/02/03 00:48:12;;;;;;;;;;;;;;;8.08;100.00;102634.97;5097346;28;20010;-72
2024/02/03 00:50:37;;;;;;;;;;;;;;;8.09;100.00;102633.22;5099741;28;19977;-72
2024/02/03 00:53:03;;;;;;;;;;;;;;;8.10;100.00;102621.91;5101161;28;19916;-72
2024/02/03 00:55:28;;;;;;;;;;;;;;;8.08;100.00;102624.53;5104323;28;19934;-72
2024/02/03 00:57:53;;;;;;;;;;;;;;;8.09;100.00;102622.78;5100554;28;20107;-72
2024/02/03 01:00:22;;;;;;;;;;;;;;;8.10;100.00;102629.75;5101396;28;19931;-72
2024/02/03 01:02:48;;;;;;;;;;;;;;;8.11;100.00;102628.00;5099507;28;19923;-72
2024/02/03 01:05:13;;;;;;;;;;;;;;;8.12;100.00;102621.91;5098986;28;20181;-72
2024/02/03 01:07:39;;;;;;;;;;;;;;;8.12;100.00;102627.13;5097759;28;20226;-72
2024/02/03 01:10:04;;;;;;;;;;;;;;;8.12;100.00;102614.94;5103619;28;19920;-72
2024/02/03 01:12:29;;;;;;;;;;;;;;;8.12;100.00;102620.16;5101416;28;19926;-72
2024/02/03 01:14:54;;;;;;;;;;;;;;;8.13;100.00;102616.69;5101633;28;19924;-72
2024/02/03 01:17:20;;;;;;;;;;;;;;;8.13;100.00;102611.47;5101374;28;19920;-72
2024/02/03 01:19:45;;;;;;;;;;;;;;;8.14;100.00;102615.81;5106220;28;19916;-72
2024/02/03 01:22:11;;;;;;;;;;;;;;;8.16;100.00;102606.22;5106612;28;19920;-72
2024/02/03 01:24:36;;;;;;;;;;;;;;;8.19;100.00;102600.16;5098107;28;19920;-72
2024/02/03 01:27:02;;;;;;;;;;;;;;;8.20;100.00;102605.34;5098278;28;19920;-72
2024/02/03 01:29:27;;;;;;;;;;;;;;;8.22;100.00;102608.84;5095917;28;19924;-72
2024/02/03 01:31:52;;;;;;;;;;;;;;;8.23;100.00;102612.31;5098610;28;19920;-72
2024/02/03 01:34:17;;;;;;;;;;;;;;;8.24;100.00;102616.66;5092237;28;19935;-72
2024/02/03 01:36:43;;;;;;;;;;;;;;;8.24;100.00;102616.66;5100531;28;20215;-72
2024/02/03 01:39:08;;;;;;;;;;;;;;;8.25;100.00;102618.41;5109101;28;20002;-72
2024/02/03 01:41:33;;;;;;;;;;;;;;;8.26;100.00;102602.75;5103706;28;20111;-72
2024/02/03 01:43:59;;;;;;;;;;;;;;;8.27;100.00;102609.69;5091178;28;19920;-72
2024/02/03 01:46:24;;;;;;;;;;;;;;;8.29;100.00;102603.59;5099187;28;20184;-72
2024/02/03 01:48:49;;;;;;;;;;;;;;;8.29;100.00;102609.69;5099762;28;19916;-72
2024/02/03 01:51:16;;;;;;;;;;;;;;;8.31;100.00;102602.72;5099577;28;19953;-72
2024/02/03 01:53:42;;;;;;;;;;;;;;;8.32;100.00;102596.63;5097787;28;19920;-72
2024/02/03 01:56:08;;;;;;;;;;;;;;;8.33;100.00;102606.22;5081317;28;20238;-72
2024/02/03 01:58:34;;;;;;;;;;;;;;;8.34;100.00;102599.22;5099436;28;19987;-72
2024/02/03 02:00:59;;;;;;;;;;;;;;;8.35;100.00;102596.63;5098654;28;19942;-72
2024/02/03 02:03:25;;;;;;;;;;;;;;;8.37;100.00;102601.84;5099757;28;19916;-72
2024/02/03 02:05:50;;;;;;;;;;;;;;;8.37;100.00;102601.84;5084175;28;19926;-72
2024/02/03 02:08:16;;;;;;;;;;;;;;;8.37;100.00;102601.84;5104076;28;20204;-72
2024/02/03 02:10:41;;;;;;;;;;;;;;;8.37;100.00;102600.09;5103905;28;19919;-72
2024/02/03 02:13:06;;;;;;;;;;;;;;;8.37;100.00;102600.09;5103290;28;19916;-72
2024/02/03 02:15:32;;;;;;;;;;;;;;;8.38;100.00;102601.81;5102751;28;20203;-72
2024/02/03 02:17:58;;;;;;;;;;;;;;;8.38;100.00;102598.34;5107479;28;19946;-72
2024/02/03 02:20:23;;;;;;;;;;;;;;;8.39;100.00;102600.97;5122989;28;20130;-72
2024/02/03 02:22:48;;;;;;;;;;;;;;;8.40;100.00;102600.09;5124197;28;19971;-72
2024/02/03 02:25:14;;;;;;;;;;;;;;;8.39;100.00;102603.56;5122806;28;20174;-72
2024/02/03 02:27:39;;;;;;;;;;;;;;;8.40;100.00;102593.97;5123718;28;19971;-72
2024/02/03 02:30:05;;;;;;;;;;;;;;;8.39;100.00;102593.13;5096635;28;19927;-72
2024/02/03 02:32:30;;;;;;;;;;;;;;;8.38;100.00;102604.44;5085120;28;19920;-72
2024/02/03 02:34:55;;;;;;;;;;;;;;;8.39;100.00;102593.13;5102371;28;19927;-72
2024/02/03 02:37:20;;;;;;;;;;;;;;;8.38;100.00;102593.13;5103476;28;19920;-72
2024/02/03 02:39:45;;;;;;;;;;;;;;;8.38;100.00;102596.59;5103362;28;19916;-72
2024/02/03 02:42:11;;;;;;;;;;;;;;;8.38;100.00;102588.75;5103078;28;19927;-72
2024/02/03 02:44:36;;;;;;;;;;;;;;;8.36;100.00;102580.06;5102042;28;19919;-72
2024/02/03 02:47:01;;;;;;;;;;;;;;;8.37;100.00;102583.56;5102092;28;19912;-72
2024/02/03 02:49:26;;;;;;;;;;;;;;;8.38;100.00;102591.38;5096644;28;19912;-72
2024/02/03 02:51:52;;;;;;;;;;;;;;;8.39;100.00;102577.47;5099814;28;20231;-72
2024/02/03 02:54:17;;;;;;;;;;;;;;;8.38;100.00;102577.47;5095420;28;20222;-72
2024/02/03 02:56:42;;;;;;;;;;;;;;;8.39;100.00;102577.47;5103104;28;20006;-72
2024/02/03 02:59:07;;;;;;;;;;;;;;;8.39;100.00;102593.13;5098957;28;19920;-72
2024/02/03 03:01:33;;;;;;;;;;;;;;;8.39;100.00;102587.91;5098109;28;20170;-72
2024/02/03 03:03:58;;;;;;;;;;;;;;;8.39;100.00;102585.28;5086560;28;19920;-72
2024/02/03 03:06:23;;;;;;;;;;;;;;;8.40;100.00;102578.31;5110557;28;19920;-72
2024/02/03 03:08:49;;;;;;;;;;;;;;;8.41;100.00;102572.25;5084631;28;19947;-72
2024/02/03 03:11:14;;;;;;;;;;;;;;;8.41;100.00;102569.63;5102220;28;19949;-72
2024/02/03 03:13:39;;;;;;;;;;;;;;;8.42;100.00;102576.59;5096754;28;19924;-72
2024/02/03 03:16:07;;;;;;;;;;;;;;;8.45;100.00;102571.38;5101626;28;19979;-72
2024/02/03 03:18:32;;;;;;;;;;;;;;;8.43;100.00;102563.53;5105398;28;20208;-72
2024/02/03 03:20:58;;;;;;;;;;;;;;;8.43;100.00;102563.53;5122608;28;19920;-72
2024/02/03 03:23:23;;;;;;;;;;;;;;;8.44;100.00;102559.19;5122458;28;19919;-72
2024/02/03 03:25:49;;;;;;;;;;;;;;;8.44;100.00;102572.22;5122355;28;19979;-72
2024/02/03 03:28:14;;;;;;;;;;;;;;;8.44;100.00;102564.41;5122092;28;19919;-72
2024/02/03 03:30:39;;;;;;;;;;;;;;;8.43;100.00;102558.31;5120878;28;19920;-72
2024/02/03 03:33:04;;;;;;;;;;;;;;;8.46;100.00;102562.69;5122590;28;19947;-72
2024/02/03 03:35:29;;;;;;;;;;;;;;;8.46;100.00;102565.28;5122574;28;19919;-72
2024/02/03 03:37:57;;;;;;;;;;;;;;;8.46;100.00;102565.28;5121320;28;19927;-72
2024/02/03 03:40:22;;;;;;;;;;;;;;;8.47;100.00;102561.78;5122620;28;19919;-72
2024/02/03 03:42:49;;;;;;;;;;;;;;;8.46;100.00;102557.47;5121924;28;19951;-72
2024/02/03 03:45:16;;;;;;;;;;;;;;;8.48;100.00;102566.16;5114373;28;20153;-72
2024/02/03 03:47:41;;;;;;;;;;;;;;;8.49;100.00;102572.22;5121012;28;19926;-72
2024/02/03 03:50:07;;;;;;;;;;;;;;;8.49;100.00;102570.47;5116644;28;19919;-72
2024/02/03 03:52:32;;;;;;;;;;;;;;;8.50;100.00;102569.63;5121486;28;20162;-72
2024/02/03 03:54:57;;;;;;;;;;;;;;;8.51;100.00;102560.03;5113818;28;19920;-72
2024/02/03 03:57:22;;;;;;;;;;;;;;;8.53;100.00;102560.88;5121335;28;20025;-72
2024/02/03 03:59:48;;;;;;;;;;;;;;;8.55;100.00;102557.41;5122356;28;19922;-72
2024/02/03 04:02:14;;;;;;;;;;;;;;;8.54;100.00;102563.50;5121553;28;19986;-72
2024/02/03 04:04:39;;;;;;;;;;;;;;;8.57;100.00;102562.63;5121429;28;20156;-72
2024/02/03 04:07:05;;;;;;;;;;;;;;;8.56;100.00;102559.13;5121486;28;19943;-72
2024/02/03 04:09:30;;;;;;;;;;;;;;;8.59;100.00;102558.28;5121964;28;19931;-72
2024/02/03 04:11:55;;;;;;;;;;;;;;;8.58;100.00;102565.22;5121383;28;19918;-72
2024/02/03 04:14:20;;;;;;;;;;;;;;;8.59;100.00;102572.19;5121568;28;19934;-72
2024/02/03 04:16:46;;;;;;;;;;;;;;;8.59;100.00;102572.19;5121758;28;20096;-72
2024/02/03 04:19:11;;;;;;;;;;;;;;;8.59;100.00;102564.34;5119743;28;19961;-72
2024/02/03 04:21:37;;;;;;;;;;;;;;;8.60;100.00;102568.72;5120510;28;19920;-72
2024/02/03 04:24:02;;;;;;;;;;;;;;;8.59;100.00;102564.34;5120737;28;20228;-72
2024/02/03 04:26:27;;;;;;;;;;;;;;;8.59;100.00;102563.50;5120776;28;20043;-72
2024/02/03 04:28:53;;;;;;;;;;;;;;;8.60;100.00;102558.25;5120822;28;20111;-72
2024/02/03 04:31:18;;;;;;;;;;;;;;;8.61;100.00;102566.97;5120105;28;20665;-72
2024/02/03 04:33:43;;;;;;;;;;;;;;;8.61;100.00;102559.97;5121327;28;19924;-72
2024/02/03 04:36:09;;;;;;;;;;;;;;;8.62;100.00;102568.69;5120430;28;19919;-72
2024/02/03 04:38:34;;;;;;;;;;;;;;;8.60;100.00;102566.09;5121648;28;19920;-72
2024/02/03 04:40:59;;;;;;;;;;;;;;;8.61;100.00;102564.34;5120883;28;19920;-72
2024/02/03 04:43:25;;;;;;;;;;;;;;;8.61;100.00;102570.44;5117493;28;19956;-72
2024/02/03 04:45:50;;;;;;;;;;;;;;;8.60;100.00;102571.31;5115720;28;19920;-72
2024/02/03 04:48:15;;;;;;;;;;;;;;;8.60;100.00;102567.81;5121142;28;19919;-72
2024/02/03 04:50:41;;;;;;;;;;;;;;;8.60;100.00;102558.25;5121206;28;19933;-72
2024/02/03 04:53:06;;;;;;;;;;;;;;;8.61;100.00;102565.22;5120567;28;20199;-72
2024/02/03 04:55:31;;;;;;;;;;;;;;;8.61;100.00;102551.28;5120333;28;19916;-72
2024/02/03 04:57:57;;;;;;;;;;;;;;;8.62;100.00;102555.63;5120560;28;20189;-72
2024/02/03 05:00:22;;;;;;;;;;;;;;;8.61;100.00;102559.13;5119616;28;19919;-72
2024/02/03 05:02:47;;;;;;;;;;;;;;;8.60;100.00;102558.25;5114936;28;20000;-72
2024/02/03 05:05:12;;;;;;;;;;;;;;;8.61;100.00;102556.50;5119829;28;19919;-72
2024/02/03 05:07:37;;;;;;;;;;;;;;;8.62;100.00;102553.91;5120143;28;19919;-72
2024/02/03 05:10:04;;;;;;;;;;;;;;;8.60;100.00;102545.22;5119953;28;19951;-72
2024/02/03 05:12:31;;;;;;;;;;;;;;;8.59;100.00;102550.44;5120328;28;20178;-72
2024/02/03 05:14:56;;;;;;;;;;;;;;;8.59;100.00;102547.81;5119700;28;20267;-72
2024/02/03 05:17:21;;;;;;;;;;;;;;;8.58;100.00;102557.38;5120351;28;19926;-72
2024/02/03 05:19:46;;;;;;;;;;;;;;;8.57;100.00;102544.34;5119784;28;20151;-72
2024/02/03 05:22:12;;;;;;;;;;;;;;;8.59;100.00;102546.06;5119859;28;20249;-72
2024/02/03 05:24:37;;;;;;;;;;;;;;;8.60;100.00;102553.03;5121019;28;19926;-72
2024/02/03 05:27:02;;;;;;;;;;;;;;;8.59;100.00;102550.44;5119816;28;19979;-72
2024/02/03 05:29:28;;;;;;;;;;;;;;;8.59;100.00;102551.28;5120209;28;19951;-72
2024/02/03 05:31:53;;;;;;;;;;;;;;;8.58;100.00;102546.06;5120023;28;19920;-72
2024/02/03 05:34:18;;;;;;;;;;;;;;;8.56;100.00;102546.06;5120175;28;19930;-72
2024/02/03 05:36:43;;;;;;;;;;;;;;;8.57;100.00;102545.22;5119935;28;19995;-72
2024/02/03 05:39:08;;;;;;;;;;;;;;;8.54;100.00;102540.00;5120359;28;20187;-72
2024/02/03 05:41:34;;;;;;;;;;;;;;;8.55;100.00;102557.41;5124506;28;19977;-72
2024/02/03 05:43:59;;;;;;;;;;;;;;;8.53;100.00;102547.84;5124319;28;19919;-72
2024/02/03 05:46:24;;;;;;;;;;;;;;;8.52;100.00;102544.34;5123604;28;19920;-72
2024/02/03 05:48:49;;;;;;;;;;;;;;;8.53;100.00;102537.38;5124477;28;20017;-72
2024/02/03 05:51:15;;;;;;;;;;;;;;;8.55;100.00;102538.25;5124375;28;19965;-72
2024/02/03 05:53:40;;;;;;;;;;;;;;;8.53;100.00;102526.94;5124341;28;19924;-72
2024/02/03 05:56:05;;;;;;;;;;;;;;;8.51;100.00;102529.56;5123699;28;20007;-72
2024/02/03 05:58:31;;;;;;;;;;;;;;;8.51;100.00;102540.00;5124268;28;19919;-72
2024/02/03 06:00:56;;;;;;;;;;;;;;;8.52;100.00;102536.53;5123594;28;19926;-72
2024/02/03 06:03:23;;;;;;;;;;;;;;;8.55;100.00;102543.47;5123576;28;19923;-72
2024/02/03 06:05:48;;;;;;;;;;;;;;;8.52;100.00;102549.59;5124376;28;19943;-72
2024/02/03 06:08:13;;;;;;;;;;;;;;;8.55;100.00;102554.81;5123317;28;19934;-72
2024/02/03 06:10:38;;;;;;;;;;;;;;;8.55;100.00;102546.06;5124291;28;20168;-72
2024/02/03 06:13:04;;;;;;;;;;;;;;;8.56;100.00;102550.44;5123105;28;20020;-72
2024/02/03 06:15:29;;;;;;;;;;;;;;;8.56;100.00;102553.91;5123675;28;19934;-72
2024/02/03 06:17:54;;;;;;;;;;;;;;;8.57;100.00;102560.88;5123505;28;19919;-72
2024/02/03 06:20:19;;;;;;;;;;;;;;;8.57;100.00;102555.66;5105189;28;20279;-72
2024/02/03 06:22:45;;;;;;;;;;;;;;;8.59;100.00;102560.88;5122918;28;19920;-72
2024/02/03 06:25:10;;;;;;;;;;;;;;;8.60;100.00;102566.09;5123427;28;20010;-72
2024/02/03 06:27:35;;;;;;;;;;;;;;;8.60;100.00;102581.78;5123570;28;19919;-72
2024/02/03 06:30:01;;;;;;;;;;;;;;;8.61;100.00;102583.50;5105091;28;19920;-72
2024/02/03 06:32:26;;;;;;;;;;;;;;;8.65;100.00;102579.97;5104173;28;19958;-72
2024/02/03 06:34:51;;;;;;;;;;;;;;;8.62;100.00;102563.44;5122975;28;19926;-72
2024/02/03 06:37:16;;;;;;;;;;;;;;;8.59;100.00;102561.75;5122924;28;19926;-72
2024/02/03 06:39:42;;;;;;;;;;;;;;;8.56;100.00;102551.28;5122588;28;19957;-72
2024/02/03 06:42:07;;;;;;;;;;;;;;;8.56;100.00;102556.53;5121284;28;20170;-72
2024/02/03 06:44:32;;;;;;;;;;;;;;;8.55;100.00;102543.47;5121648;28;20111;-72
2024/02/03 06:46:57;;;;;;;;;;;;;;;8.54;100.00;102545.22;5123179;28;20267;-72
2024/02/03 06:49:23;;;;;;;;;;;;;;;8.53;100.00;102533.06;5103315;28;20023;-72
2024/02/03 06:51:48;;;;;;;;;;;;;;;8.53;100.00;102526.94;5121804;28;19941;-72
2024/02/03 06:54:13;;;;;;;;;;;;;;;8.52;100.00;102541.75;5121500;28;19923;-72
2024/02/03 06:56:38;;;;;;;;;;;;;;;8.54;100.00;102547.84;5122271;28;19923;-72
2024/02/03 06:59:03;;;;;;;;;;;;;;;8.54;100.00;102545.22;5109811;28;19927;-72
2024/02/03 07:01:29;;;;;;;;;;;;;;;8.57;100.00;102545.22;5121124;28;19923;-72
2024/02/03 07:03:54;;;;;;;;;;;;;;;8.56;100.00;102545.22;5120711;28;19994;-72
2024/02/03 07:06:19;;;;;;;;;;;;;;;8.54;100.00;102555.66;5121407;28;19916;-72
2024/02/03 07:08:44;;;;;;;;;;;;;;;8.55;100.00;102554.81;5121197;28;19930;-72
2024/02/03 07:11:11;;;;;;;;;;;;;;;8.55;100.00;102557.41;5121132;28;19914;-72
2024/02/03 07:13:37;;;;;;;;;;;;;;;8.54;100.00;102563.50;5121175;28;19961;-72
2024/02/03 07:16:03;;;;;;;;;;;;;;;8.53;100.00;102566.09;5120415;28;19979;-72
2024/02/03 07:18:28;;;;;;;;;;;;;;;8.55;100.00;102572.19;5121022;28;20291;-72
2024/02/03 07:20:54;;;;;;;;;;;;;;;8.56;100.00;102572.19;5121139;28;20147;-72
2024/02/03 07:23:19;;;;;;;;;;;;;;;8.56;100.00;102566.97;5120623;27;20011;-72
2024/02/03 07:25:44;;;;;;;;;;;;;;;8.55;100.00;102573.09;5102628;28;19919;-72
2024/02/03 07:28:09;;;;;;;;;;;;;;;8.53;100.00;102571.34;5120883;28;19926;-72
2024/02/03 07:30:34;;;;;;;;;;;;;;;8.57;100.00;102583.53;5121216;28;19920;-72
2024/02/03 07:33:04;;;;;;;;;;;;;;;8.56;100.00;102581.78;5120727;28;19926;-72
2024/02/03 07:35:29;;;;;;;;;;;;;;;8.56;100.00;102580.03;5118515;28;19926;-72
2024/02/03 07:37:55;;;;;;;;;;;;;;;8.55;100.00;102574.81;5118216;28;20218;-72
2024/02/03 07:40:20;;;;;;;;;;;;;;;8.56;100.00;102584.38;5119946;28;20259;-72
2024/02/03 07:42:45;;;;;;;;;;;;;;;8.56;100.00;102587.00;5120112;28;19912;-72
2024/02/03 07:45:11;;;;;;;;;;;;;;;8.55;100.00;102588.75;5120000;28;20029;-72
2024/02/03 07:47:36;;;;;;;;;;;;;;;8.53;100.00;102587.91;5120295;28;19927;-72
2024/02/03 07:50:01;;;;;;;;;;;;;;;8.52;100.00;102587.91;5117821;28;19947;-72
2024/02/03 07:52:27;;;;;;;;;;;;;;;8.52;100.00;102599.19;5121165;28;19927;-72
2024/02/03 07:54:52;;;;;;;;;;;;;;;8.52;100.00;102593.13;5120637;28;19920;-72
2024/02/03 07:57:17;;;;;;;;;;;;;;;8.53;100.00;102589.63;5121319;28;19920;-72
2024/02/03 07:59:42;;;;;;;;;;;;;;;8.57;100.00;102593.97;5120418;28;19915;-72
2024/02/03 08:02:08;;;;;;;;;;;;;;;8.57;100.00;102601.81;5106507;28;20131;-72
2024/02/03 08:04:33;;;;;;;;;;;;;;;8.57;100.00;102607.03;5121039;28;20025;-72
2024/02/03 08:06:58;;;;;;;;;;;;;;;8.58;100.00;102601.78;5102775;28;20008;-72
2024/02/03 08:09:23;;;;;;;;;;;;;;;8.57;100.00;102607.88;5120954;28;19920;-72
2024/02/03 08:11:49;;;;;;;;;;;;;;;8.59;100.00;102613.13;5121353;28;19916;-72
2024/02/03 08:14:14;;;;;;;;;;;;;;;8.57;100.00;102609.63;5120297;28;20019;-72
2024/02/03 08:16:39;;;;;;;;;;;;;;;8.60;100.00;102600.06;5120512;28;19920;-72
2024/02/03 08:19:04;;;;;;;;;;;;;;;8.61;100.00;102607.00;5117180;28;19930;-72
2024/02/03 08:21:30;;;;;;;;;;;;;;;8.63;100.00;102607.00;5117856;28;19991;-72
2024/02/03 08:23:55;;;;;;;;;;;;;;;8.62;100.00;102600.91;5120661;28;19911;-72
2024/02/03 08:26:20;;;;;;;;;;;;;;;8.63;100.00;102601.78;5119905;28;19923;-72
2024/02/03 08:28:45;;;;;;;;;;;;;;;8.64;100.00;102593.94;5119683;28;20200;-72
2024/02/03 08:31:11;;;;;;;;;;;;;;;8.65;100.00;102605.25;5119344;28;20331;-72
2024/02/03 08:33:37;;;;;;;;;;;;;;;8.65;100.00;102606.09;5119535;28;19919;-72
2024/02/03 08:36:02;;;;;;;;;;;;;;;8.67;100.00;102595.66;5119067;28;20225;-72
2024/02/03 08:38:27;;;;;;;;;;;;;;;8.67;100.00;102587.81;5120212;28;19970;-72
2024/02/03 08:40:52;;;;;;;;;;;;;;;8.68;100.00;102579.13;5119489;28;20262;-72
2024/02/03 08:43:18;;;;;;;;;;;;;;;8.69;100.00;102587.81;5119377;28;19919;-72
2024/02/03 08:45:43;;;;;;;;;;;;;;;8.70;100.00;102582.59;5119997;28;19927;-72
2024/02/03 08:48:08;;;;;;;;;;;;;;;8.73;100.00;102581.69;5119009;28;19920;-72
2024/02/03 08:50:34;;;;;;;;;;;;;;;8.73;100.00;102572.13;5119472;28;19915;-72
2024/02/03 08:52:59;;;;;;;;;;;;;;;8.75;100.00;102574.69;5119592;28;20250;-72
2024/02/03 08:55:24;;;;;;;;;;;;;;;8.76;100.00;102577.31;5119884;28;19923;-72
2024/02/03 08:57:50;;;;;;;;;;;;;;;8.76;100.00;102574.69;5110653;28;20522;-72
2024/02/03 09:00:15;;;;;;;;;;;;;;;8.77;100.00;102586.03;5117005;28;20227;-72
2024/02/03 09:02:40;;;;;;;;;;;;;;;8.77;100.00;102592.13;5120375;28;20284;-72
2024/02/03 09:05:07;;;;;;;;;;;;;;;8.78;100.00;102593.84;5118870;28;19926;-72
2024/02/03 09:07:35;;;;;;;;;;;;;;;8.77;100.00;102593.88;5117119;28;19912;-73
2024/02/03 09:10:01;;;;;;;;;;;;;;;8.78;100.00;102585.16;5111892;27;19988;-72
2024/02/03 09:12:26;;;;;;;;;;;;;;;8.79;100.00;102579.91;5114624;28;19923;-72
2024/02/03 09:14:51;;;;;;;;;;;;;;;8.82;100.00;102577.31;5117937;28;19924;-73
2024/02/03 09:17:16;;;;;;;;;;;;;;;8.82;100.00;102572.06;5118014;28;19916;-73
2024/02/03 09:19:42;;;;;;;;;;;;;;;8.85;100.00;102568.56;5116063;28;19927;-74
2024/02/03 09:22:07;;;;;;;;;;;;;;;8.88;100.00;102572.88;5096263;28;20778;-73
2024/02/03 09:24:32;;;;;;;;;;;;;;;8.89;100.00;102564.19;5111470;28;20288;-73
2024/02/03 09:26:58;;;;;;;;;;;;;;;8.91;100.00;102565.03;5111567;28;19927;-73
2024/02/03 09:29:23;;;;;;;;;;;;;;;8.92;100.00;102567.66;5113226;28;20190;-73
2024/02/03 09:31:48;;;;;;;;;;;;;;;8.94;100.00;102563.28;5114242;28;20158;-73
2024/02/03 09:34:13;;;;;;;;;;;;;;;8.96;100.00;102577.19;5112258;28;19928;-73
2024/02/03 09:36:40;;;;;;;;;;;;;;;8.97;100.00;102572.88;5114310;28;19924;-74
2024/02/03 09:39:06;;;;;;;;;;;;;;;8.99;100.00;102581.56;5113003;28;19919;-74
2024/02/03 09:41:32;;;;;;;;;;;;;;;9.00;100.00;102581.56;5094900;28;19920;-74
2024/02/03 09:43:58;;;;;;;;;;;;;;;9.03;100.00;102578.03;5094819;28;19920;-74
2024/02/03 09:46:23;;;;;;;;;;;;;;;9.05;100.00;102573.66;5097597;28;19919;-74
2024/02/03 09:48:48;;;;;;;;;;;;;;;9.05;100.00;102584.13;5116681;28;19930;-74
2024/02/03 09:51:14;;;;;;;;;;;;;;;9.06;100.00;102577.13;5120521;28;19998;-74
2024/02/03 09:53:39;;;;;;;;;;;;;;;9.07;100.00;102590.19;5117027;28;19920;-74
2024/02/03 09:56:05;;;;;;;;;;;;;;;9.06;100.00;102593.72;5112216;28;19912;-74
2024/02/03 09:58:30;;;;;;;;;;;;;;;9.09;100.00;102598.03;5114897;28;19951;-74
2024/02/03 10:00:56;;;;;;;;;;;;;;;9.07;100.00;102602.41;5096670;28;19943;-74
2024/02/03 10:03:21;;;;;;;;;;;;;;;9.10;100.00;102602.41;5114462;28;19929;-74
2024/02/03 10:05:48;;;;;;;;;;;;;;;9.11;100.00;102598.88;5113078;28;19923;-75
2024/02/03 10:08:14;;;;;;;;;;;;;;;9.12;100.00;102588.44;5114783;28;19915;-74
2024/02/03 10:10:42;;;;;;;;;;;;;;;9.12;100.00;102595.41;5115148;28;19993;-74
2024/02/03 10:13:11;;;;;;;;;;;;;;;9.14;100.00;102598.88;5113106;28;20219;-75
2024/02/03 10:15:39;;;;;;;;;;;;;;;9.15;100.00;102595.38;5113346;28;20216;-74
2024/02/03 10:18:05;;;;;;;;;;;;;;;9.16;100.00;102587.53;5116121;28;19920;-78
2024/02/03 10:20:31;;;;;;;;;;;;;;;9.20;100.00;102604.06;5092877;28;19923;-80
2024/02/03 10:22:56;;;;;;;;;;;;;;;9.23;100.00;102597.06;5110670;28;19920;-73
2024/02/03 10:25:27;;;;;;;;;;;;;;;9.24;100.00;102595.34;5110634;28;20034;-79
2024/02/03 10:28:04;;;;;;;;;;;;;;;9.26;100.00;102593.56;5113717;28;19927;-85
2024/02/03 10:30:33;;;;;;;;;;;;;;;9.27;100.00;102610.97;5094594;28;19919;-73
2024/02/03 10:32:59;;;;;;;;;;;;;;;9.28;100.00;102606.59;5102486;28;19920;-73
2024/02/03 10:35:43;;;;;;;;;;;;;;;9.30;100.00;102607.50;5112162;28;20098;-73
2024/02/03 10:38:08;;;;;;;;;;;;;;;9.29;100.00;102601.38;5110399;28;19926;-73
2024/02/03 10:40:34;;;;;;;;;;;;;;;9.28;100.00;102593.53;5111584;28;19947;-74
2024/02/03 10:43:00;;;;;;;;;;;;;;;9.30;100.00;102589.19;5113261;28;19923;-73
2024/02/03 10:45:27;;;;;;;;;;;;;;;9.28;100.00;102601.38;5112743;28;19978;-73
2024/02/03 10:47:53;;;;;;;;;;;;;;;9.27;100.00;102597.91;5108986;28;19923;-73
2024/02/03 10:50:20;;;;;;;;;;;;;;;9.26;100.00;102606.66;5109724;28;19950;-73
2024/02/03 10:52:46;;;;;;;;;;;;;;;9.26;100.00;102604.03;5111915;28;19919;-73
2024/02/03 10:55:14;;;;;;;;;;;;;;;9.27;100.00;102599.66;5110120;28;19915;-73
2024/02/03 10:57:42;;;;;;;;;;;;;;;9.26;100.00;102597.91;5101868;28;19924;-73
2024/02/03 11:00:08;;;;;;;;;;;;;;;9.28;100.00;102597.03;5096185;28;20006;-73
2024/02/03 11:02:33;;;;;;;;;;;;;;;9.29;100.00;102600.53;5096536;28;19962;-73
2024/02/03 11:04:58;;;;;;;;;;;;;;;9.28;100.00;102590.91;5098296;28;20286;-73
2024/02/03 11:07:27;;;;;;;;;;;;;;;9.31;100.00;102599.63;5096278;28;19920;-73
2024/02/03 11:09:58;;;;;;;;;;;;;;;9.32;100.00;102598.75;5101140;28;19957;-73
2024/02/03 11:12:31;;;;;;;;;;;;;;;9.32;100.00;102595.28;5108872;28;20261;-73
2024/02/03 11:14:56;;;;;;;;;;;;;;;9.31;100.00;102601.38;5111157;28;20114;-73
2024/02/03 11:17:22;;;;;;;;;;;;;;;9.32;100.00;102584.81;5110247;28;19947;-73
2024/02/03 11:19:47;;;;;;;;;;;;;;;9.34;100.00;102598.75;5109767;28;19993;-73
2024/02/03 11:22:14;;;;;;;;;;;;;;;9.34;100.00;102586.53;5091572;28;19920;-73
2024/02/03 11:24:40;;;;;;;;;;;;;;;9.36;100.00;102590.00;5111263;28;19920;-73
2024/02/03 11:27:08;;;;;;;;;;;;;;;9.35;100.00;102590.88;5110151;28;19977;-73
2024/02/03 11:29:33;;;;;;;;;;;;;;;9.34;100.00;102588.28;5110733;28;19938;-73
2024/02/03 11:32:08;;;;;;;;;;;;;;;9.32;100.00;102590.03;5110980;28;19928;-80
2024/02/03 11:34:35;;;;;;;;;;;;;;;9.29;100.00;102585.69;5110330;28;19934;-74
2024/02/03 11:37:00;;;;;;;;;;;;;;;9.26;100.00;102574.38;5110382;28;19924;-73
2024/02/03 11:39:29;;;;;;;;;;;;;;;9.26;100.00;102569.16;5111899;28;19928;-73
2024/02/03 11:41:55;;;;;;;;;;;;;;;9.23;100.00;102570.06;5110524;28;20151;-73
2024/02/03 11:44:20;;;;;;;;;;;;;;;9.21;100.00;102567.44;5108455;28;19920;-73
2024/02/03 11:46:46;;;;;;;;;;;;;;;9.21;100.00;102563.97;5106781;28;19952;-78
2024/02/03 11:49:12;;;;;;;;;;;;;;;9.22;100.00;102563.97;5110594;28;19912;-74
2024/02/03 11:51:37;;;;;;;;;;;;;;;9.24;100.00;102563.97;5111631;28;19943;-74
2024/02/03 11:54:03;;;;;;;;;;;;;;;9.23;100.00;102557.00;5110929;28;19958;-73
2024/02/03 11:56:28;;;;;;;;;;;;;;;9.24;100.00;102553.50;5102978;28;20196;-73
2024/02/03 11:58:54;;;;;;;;;;;;;;;9.23;100.00;102551.75;5110963;28;20281;-73
2024/02/03 12:01:19;;;;;;;;;;;;;;;9.27;100.00;102555.22;5110491;28;20445;-73
2024/02/03 12:03:45;;;;;;;;;;;;;;;9.23;100.00;102551.75;5111689;28;19986;-73
2024/02/03 12:06:11;;;;;;;;;;;;;;;9.28;100.00;102562.16;5106579;28;19974;-73
2024/02/03 12:08:36;;;;;;;;;;;;;;;9.27;100.00;102556.06;5111739;28;19923;-73
2024/02/03 12:11:01;;;;;;;;;;;;;;;9.28;100.00;102564.78;5110451;28;19927;-74
2024/02/03 12:13:33;;;;;;;;;;;;;;;9.28;100.00;102562.16;5109811;28;20092;-73
2024/02/03 12:15:58;;;;;;;;;;;;;;;9.28;100.00;102565.66;5109606;27;20020;-73
2024/02/03 12:18:23;;;;;;;;;;;;;;;9.29;100.00;102550.84;5090662;28;20085;-73
2024/02/03 12:20:48;;;;;;;;;;;;;;;9.31;100.00;102549.06;5109729;28;20211;-73
2024/02/03 12:23:14;;;;;;;;;;;;;;;9.30;100.00;102552.59;5110810;28;19920;-73
2024/02/03 12:25:39;;;;;;;;;;;;;;;9.29;100.00;102556.06;5113842;27;20220;-73
2024/02/03 12:28:05;;;;;;;;;;;;;;;9.29;100.00;102549.09;5094288;27;20057;-73